createdAt,value
2023-01-13T00:00:16.110Z,9.03
2023-01-13T00:02:42.765Z,8.97
2023-01-13T00:05:10.310Z,9.05
2023-01-13T00:07:38.390Z,9.05
2023-01-13T00:10:05.138Z,8.96
2023-01-13T00:12:31.687Z,9.03
2023-01-13T00:14:58.199Z,8.99
2023-01-13T00:17:24.732Z,9.06
2023-01-13T00:19:51.661Z,9.06
2023-01-13T00:22:18.218Z,9.08
2023-01-13T00:24:44.750Z,9.01
2023-01-13T00:27:11.278Z,9.14
2023-01-13T00:29:37.814Z,9.20
2023-01-13T00:32:04.406Z,9.18
2023-01-13T00:34:31.526Z,9.12
2023-01-13T00:36:58.182Z,9.16
2023-01-13T00:39:24.726Z,9.21
2023-01-13T00:42:09.725Z,9.26
2023-01-13T00:44:36.378Z,9.16
2023-01-13T00:47:02.872Z,9.17
2023-01-13T00:49:29.392Z,9.17
2023-01-13T00:51:55.882Z,9.22
2023-01-13T00:54:22.381Z,9.28
2023-01-13T00:56:48.881Z,9.18
2023-01-13T00:59:15.428Z,9.29
2023-01-13T01:01:42.168Z,9.32
2023-01-13T01:04:08.891Z,9.35
2023-01-13T01:06:35.478Z,9.34
2023-01-13T01:09:02.022Z,9.34
2023-01-13T01:11:29.408Z,9.41
2023-01-13T01:13:56.753Z,9.45
2023-01-13T01:16:24.214Z,9.47
2023-01-13T01:18:51.351Z,9.26
2023-01-13T01:21:18.247Z,9.44
2023-01-13T01:23:44.764Z,9.41
2023-01-13T01:26:15.543Z,9.42
2023-01-13T01:28:42.102Z,9.46
2023-01-13T01:31:09.382Z,9.49
2023-01-13T01:33:35.928Z,9.38
2023-01-13T01:36:02.679Z,9.47
2023-01-13T01:38:29.296Z,9.52
2023-01-13T01:40:56.005Z,9.53
2023-01-13T01:43:41.397Z,9.51
2023-01-13T01:46:07.923Z,9.49
2023-01-13T01:48:38.653Z,9.51
2023-01-13T01:51:05.423Z,9.42
2023-01-13T01:53:32.003Z,9.57
2023-01-13T01:55:58.621Z,9.61
2023-01-13T01:58:27.628Z,9.61
2023-01-13T02:00:54.277Z,9.58
2023-01-13T02:03:20.896Z,9.59
2023-01-13T02:05:47.416Z,9.55
2023-01-13T02:08:13.987Z,9.46
2023-01-13T02:10:40.812Z,9.59
2023-01-13T02:13:08.772Z,9.63
2023-01-13T02:15:40.898Z,9.65
2023-01-13T02:18:11.741Z,9.63
2023-01-13T02:20:57.376Z,9.61
2023-01-13T02:23:57.828Z,9.71
2023-01-13T02:26:30.132Z,9.69
2023-01-13T02:29:20.164Z,9.61
2023-01-13T02:31:46.815Z,9.53
2023-01-13T02:34:32.210Z,9.50
2023-01-13T02:37:00.136Z,9.44
2023-01-13T02:39:27.635Z,9.51
2023-01-13T02:42:14.071Z,9.59
2023-01-13T02:44:48.277Z,9.58
2023-01-13T02:47:20.074Z,9.65
2023-01-13T02:49:51.097Z,9.59
2023-01-13T02:52:19.770Z,9.68
2023-01-13T02:54:47.897Z,9.72
2023-01-13T02:57:14.406Z,9.65
2023-01-13T02:59:40.871Z,9.73
2023-01-13T03:02:07.469Z,9.75
2023-01-13T03:04:47.826Z,9.63
2023-01-13T03:07:23.813Z,9.57
2023-01-13T03:09:53.378Z,9.65
2023-01-13T03:12:38.127Z,9.68
2023-01-13T03:15:08.100Z,9.78
2023-01-13T03:17:41.986Z,9.53
2023-01-13T03:20:11.033Z,9.48
2023-01-13T03:22:45.271Z,9.70
2023-01-13T03:25:12.319Z,9.68
2023-01-13T03:27:41.795Z,9.73
2023-01-13T03:30:09.532Z,9.76
2023-01-13T03:32:36.926Z,9.77
2023-01-13T03:35:12.032Z,9.71
2023-01-13T03:37:39.621Z,9.54
2023-01-13T03:40:07.911Z,9.73
2023-01-13T03:42:34.588Z,9.64
2023-01-13T03:45:03.723Z,9.64
2023-01-13T03:47:38.546Z,9.64
2023-01-13T03:50:17.493Z,9.64
2023-01-13T03:52:44.942Z,9.70
2023-01-13T03:55:12.408Z,9.69
2023-01-13T03:57:40.309Z,9.53
2023-01-13T04:00:07.494Z,9.57
2023-01-13T04:02:51.817Z,9.61
2023-01-13T04:05:18.401Z,9.67
2023-01-13T04:07:49.860Z,9.69
2023-01-13T04:10:18.160Z,9.57
2023-01-13T04:13:00.923Z,9.60
2023-01-13T04:15:31.595Z,9.68
2023-01-13T04:18:14.839Z,9.72
2023-01-13T04:20:41.561Z,9.74
2023-01-13T04:23:08.190Z,9.72
2023-01-13T04:25:34.698Z,9.66
2023-01-13T04:28:01.135Z,9.63
2023-01-13T04:30:27.530Z,9.65
2023-01-13T04:32:54.028Z,9.71
2023-01-13T04:35:20.465Z,9.72
2023-01-13T04:37:46.870Z,9.72
2023-01-13T04:40:13.412Z,9.66
2023-01-13T04:42:39.944Z,9.53
2023-01-13T04:45:06.599Z,9.52
2023-01-13T04:47:33.008Z,9.50
2023-01-13T04:49:59.420Z,9.50
2023-01-13T04:52:25.915Z,9.54
2023-01-13T04:54:52.331Z,9.60
2023-01-13T04:57:18.795Z,9.55
2023-01-13T04:59:45.253Z,9.67
2023-01-13T05:02:15.108Z,9.68
2023-01-13T05:04:41.638Z,9.75
2023-01-13T05:07:08.215Z,9.71
2023-01-13T05:09:34.657Z,9.72
2023-01-13T05:12:19.934Z,9.78
2023-01-13T05:15:05.358Z,9.77
2023-01-13T05:17:31.918Z,9.76
2023-01-13T05:19:58.369Z,9.71
2023-01-13T05:22:43.543Z,9.74
2023-01-13T05:25:22.526Z,9.73
2023-01-13T05:27:49.251Z,9.80
2023-01-13T05:30:15.894Z,9.79
2023-01-13T05:32:42.422Z,9.80
2023-01-13T05:35:09.050Z,9.74
2023-01-13T05:37:35.922Z,9.63
2023-01-13T05:40:21.649Z,9.63
2023-01-13T05:43:06.788Z,9.77
2023-01-13T05:45:33.311Z,9.83
2023-01-13T05:47:59.788Z,9.83
2023-01-13T05:50:26.247Z,9.71
2023-01-13T05:52:52.717Z,9.79
2023-01-13T05:55:19.261Z,9.86
2023-01-13T05:57:45.715Z,9.90
2023-01-13T06:00:12.335Z,9.89
2023-01-13T06:02:38.818Z,9.88
2023-01-13T06:05:05.232Z,9.85
2023-01-13T06:07:31.681Z,9.86
2023-01-13T06:09:58.147Z,9.91
2023-01-13T06:12:24.590Z,9.96
2023-01-13T06:14:51.158Z,10.01
2023-01-13T06:17:17.660Z,10.03
2023-01-13T06:19:44.066Z,9.96
2023-01-13T06:22:22.993Z,9.99
2023-01-13T06:24:49.629Z,10.09
2023-01-13T06:27:16.090Z,10.09
2023-01-13T06:29:42.497Z,10.10
2023-01-13T06:32:11.613Z,10.13
2023-01-13T06:34:38.030Z,10.15
2023-01-13T06:37:04.417Z,10.11
2023-01-13T06:39:31.199Z,10.08
2023-01-13T06:42:33.138Z,10.08
2023-01-13T06:44:59.580Z,10.06
2023-01-13T06:47:26.163Z,10.02
2023-01-13T06:49:53.321Z,9.90
2023-01-13T06:52:19.861Z,9.89
2023-01-13T06:54:46.238Z,9.91
2023-01-13T06:57:12.652Z,9.85
2023-01-13T06:59:39.235Z,9.71
2023-01-13T07:02:05.768Z,9.84
2023-01-13T07:04:32.169Z,9.89
2023-01-13T07:06:58.664Z,9.72
2023-01-13T07:09:25.129Z,9.74
2023-01-13T07:14:35.333Z,9.90
2023-01-13T07:17:01.866Z,9.83
2023-01-13T07:19:28.419Z,9.96
2023-01-13T07:21:54.963Z,9.89
2023-01-13T07:24:22.465Z,9.98
2023-01-13T07:26:50.833Z,9.97
2023-01-13T07:29:17.345Z,9.89
2023-01-13T07:31:44.058Z,9.93
2023-01-13T07:34:10.600Z,9.95
2023-01-13T07:36:37.191Z,9.98
2023-01-13T07:39:03.836Z,9.99
2023-01-13T07:41:49.067Z,10.01
2023-01-13T07:44:15.592Z,10.00
2023-01-13T07:46:42.136Z,9.99
2023-01-13T07:49:09.097Z,10.03
2023-01-13T07:51:37.440Z,9.93
2023-01-13T07:54:04.087Z,9.97
2023-01-13T07:56:30.619Z,10.00
2023-01-13T07:58:59.362Z,10.00
2023-01-13T08:01:27.844Z,10.01
2023-01-13T08:03:56.225Z,10.00
2023-01-13T08:06:22.802Z,9.96
2023-01-13T08:08:49.335Z,10.00
2023-01-13T08:11:15.953Z,9.99
2023-01-13T08:13:42.593Z,9.99
2023-01-13T08:16:12.269Z,9.95
2023-01-13T08:18:39.037Z,10.02
2023-01-13T08:21:11.540Z,9.98
2023-01-13T08:23:38.577Z,9.90
2023-01-13T08:26:07.561Z,9.77
2023-01-13T08:28:34.177Z,9.84
2023-01-13T08:31:05.185Z,9.89
2023-01-13T08:33:31.795Z,9.68
2023-01-13T08:35:58.609Z,9.78
2023-01-13T08:38:25.357Z,9.86
2023-01-13T08:40:51.993Z,9.90
2023-01-13T08:43:18.547Z,9.83
2023-01-13T08:45:45.170Z,9.87
2023-01-13T08:48:11.801Z,9.91
2023-01-13T08:50:38.443Z,9.94
2023-01-13T08:53:04.990Z,9.96
2023-01-13T08:55:31.555Z,9.89
2023-01-13T08:58:14.217Z,9.95
2023-01-13T09:00:42.184Z,9.90
2023-01-13T09:03:08.739Z,9.94
2023-01-13T09:05:35.773Z,9.88
2023-01-13T09:08:02.339Z,9.86
2023-01-13T09:10:28.930Z,9.89
2023-01-13T09:13:13.865Z,9.96
2023-01-13T09:15:45.434Z,9.98
2023-01-13T09:18:12.876Z,9.94
2023-01-13T09:20:39.907Z,9.85
2023-01-13T09:23:10.061Z,9.92
2023-01-13T09:25:37.335Z,9.94
2023-01-13T09:28:05.097Z,9.96
2023-01-13T09:30:31.943Z,9.97
2023-01-13T09:33:17.441Z,10.03
2023-01-13T09:35:44.449Z,10.25
2023-01-13T09:38:11.028Z,10.43
2023-01-13T09:40:38.636Z,10.39
2023-01-13T09:43:37.092Z,10.40
2023-01-13T09:46:31.465Z,10.34
2023-01-13T09:48:58.399Z,10.33
2023-01-13T09:51:32.279Z,10.28
2023-01-13T09:54:07.221Z,10.29
2023-01-13T09:56:33.769Z,10.35
2023-01-13T09:59:00.300Z,10.38
2023-01-13T10:01:30.297Z,10.31
2023-01-13T10:03:57.945Z,10.28
2023-01-13T10:06:35.092Z,10.20
2023-01-13T10:09:01.853Z,10.09
2023-01-13T10:11:55.669Z,9.96
2023-01-13T10:14:36.055Z,9.97
2023-01-13T10:17:15.536Z,9.99
2023-01-13T10:19:50.829Z,9.96
2023-01-13T10:22:35.109Z,10.13
2023-01-13T10:25:20.361Z,10.09
2023-01-13T10:27:53.235Z,10.05
2023-01-13T10:30:31.167Z,10.03
2023-01-13T10:33:25.785Z,10.01
2023-01-13T10:35:55.979Z,9.99
2023-01-13T10:38:32.852Z,9.89
2023-01-13T10:41:02.346Z,9.82
2023-01-13T10:43:29.998Z,9.81
2023-01-13T10:46:02.429Z,9.74
2023-01-13T10:48:58.334Z,9.86
2023-01-13T10:51:32.765Z,9.88
2023-01-13T10:54:02.818Z,9.77
2023-01-13T10:56:32.673Z,9.74
2023-01-13T10:59:22.293Z,9.81
2023-01-13T11:02:02.413Z,9.80
2023-01-13T11:04:42.607Z,9.71
2023-01-13T11:07:21.398Z,9.93
2023-01-13T11:09:48.127Z,10.04
2023-01-13T11:12:33.097Z,10.24
2023-01-13T11:15:02.496Z,10.33
2023-01-13T11:17:42.814Z,10.28
2023-01-13T11:20:14.775Z,10.48
2023-01-13T11:22:46.333Z,10.65
2023-01-13T11:25:22.425Z,10.83
2023-01-13T11:27:57.643Z,10.97
2023-01-13T11:30:44.004Z,10.98
2023-01-13T11:33:10.523Z,11.30
2023-01-13T11:35:47.617Z,11.30
2023-01-13T11:38:28.620Z,11.41
2023-01-13T11:40:58.821Z,11.47
2023-01-13T11:43:51.659Z,11.54
2023-01-13T11:46:18.907Z,11.60
2023-01-13T11:48:45.509Z,11.34
2023-01-13T11:51:15.169Z,11.60
2023-01-13T11:54:12.073Z,11.58
2023-01-13T11:57:06.521Z,11.72
2023-01-13T11:59:50.382Z,11.79
2023-01-13T12:02:24.733Z,11.86
2023-01-13T12:05:06.808Z,11.93
2023-01-13T12:07:56.003Z,11.95
2023-01-13T12:10:31.329Z,11.98
2023-01-13T12:13:15.346Z,12.10
2023-01-13T12:15:47.457Z,12.13
2023-01-13T12:18:16.931Z,12.17
2023-01-13T12:21:03.881Z,11.95
2023-01-13T12:23:34.549Z,12.21
2023-01-13T12:26:21.342Z,11.91
2023-01-13T12:28:58.309Z,12.05
2023-01-13T12:31:25.260Z,12.32
2023-01-13T12:33:55.570Z,12.38
2023-01-13T12:36:27.788Z,12.61
2023-01-13T12:38:59.475Z,12.67
2023-01-13T12:42:16.986Z,12.83
2023-01-13T12:45:08.304Z,12.85
2023-01-13T12:47:44.426Z,12.84
2023-01-13T12:50:40.737Z,12.52
2023-01-13T12:53:30.662Z,12.56
2023-01-13T12:56:20.820Z,12.77
2023-01-13T12:58:47.382Z,13.08
2023-01-13T13:01:15.388Z,13.03
2023-01-13T13:03:42.072Z,13.13
2023-01-13T13:06:23.165Z,13.71
2023-01-13T13:09:03.242Z,13.65
2023-01-13T13:12:03.590Z,13.32
2023-01-13T13:14:38.983Z,13.07
2023-01-13T13:17:27.973Z,13.33
2023-01-13T13:19:56.003Z,13.19
2023-01-13T13:22:38.663Z,12.82
2023-01-13T13:25:05.074Z,12.88
2023-01-13T13:27:31.526Z,12.74
2023-01-13T13:30:17.501Z,12.62
2023-01-13T13:32:55.935Z,12.32
2023-01-13T13:35:32.181Z,12.16
2023-01-13T13:38:43.635Z,11.88
2023-01-13T13:41:41.883Z,11.59
2023-01-13T13:44:38.572Z,11.38
2023-01-13T13:47:06.501Z,11.54
2023-01-13T13:49:49.064Z,11.32
2023-01-13T13:52:21.433Z,11.38
2023-01-13T13:54:51.946Z,11.28
2023-01-13T13:57:40.016Z,11.25
2023-01-13T14:00:15.926Z,10.99
2023-01-13T14:02:49.616Z,10.87
2023-01-13T14:05:34.093Z,10.84
2023-01-13T14:08:18.710Z,10.94
2023-01-13T14:10:46.324Z,10.85
2023-01-13T14:13:27.045Z,10.84
2023-01-13T14:16:06.732Z,10.78
2023-01-13T14:18:48.167Z,10.73
2023-01-13T14:21:19.418Z,10.62
2023-01-13T14:23:57.034Z,10.54
2023-01-13T14:26:31.096Z,10.62
2023-01-13T14:28:58.760Z,10.69
2023-01-13T14:31:25.611Z,10.64
2023-01-13T14:33:54.284Z,10.71
2023-01-13T14:36:33.129Z,10.73
2023-01-13T14:39:05.707Z,10.75
2023-01-13T14:41:35.029Z,10.70
2023-01-13T14:44:09.855Z,10.61
2023-01-13T14:46:38.514Z,10.55
2023-01-13T14:49:05.322Z,10.47
2023-01-13T14:51:32.025Z,10.46
2023-01-13T14:53:59.265Z,10.41
2023-01-13T14:56:53.729Z,10.43
2023-01-13T14:59:57.304Z,10.37
2023-01-13T15:02:37.183Z,10.39
2023-01-13T15:05:19.032Z,10.32
2023-01-13T15:07:52.978Z,10.36
2023-01-13T15:10:21.424Z,10.31
2023-01-13T15:12:51.690Z,10.27
2023-01-13T15:15:33.055Z,10.14
2023-01-13T15:18:01.827Z,10.19
2023-01-13T15:20:28.974Z,10.08
2023-01-13T15:22:57.965Z,10.05
2023-01-13T15:25:24.589Z,10.05
2023-01-13T15:27:52.587Z,10.04
2023-01-13T15:30:20.679Z,9.90
2023-01-13T15:32:47.705Z,9.92
2023-01-13T15:35:16.166Z,9.83
2023-01-13T15:37:43.952Z,9.87
2023-01-13T15:40:23.756Z,9.84
2023-01-13T15:43:09.386Z,9.81
2023-01-13T15:45:55.471Z,9.83
2023-01-13T15:48:23.445Z,9.85
2023-01-13T15:50:50.261Z,9.77
2023-01-13T15:53:17.060Z,9.78
2023-01-13T15:55:45.687Z,9.72
2023-01-13T15:58:12.921Z,9.65
2023-01-13T16:00:40.108Z,9.67
2023-01-13T16:03:06.859Z,9.76
2023-01-13T16:05:33.425Z,9.78
2023-01-13T16:08:00.023Z,9.74
2023-01-13T16:10:27.987Z,9.83
2023-01-13T16:12:57.398Z,9.79
2023-01-13T16:15:25.887Z,9.77
2023-01-13T16:17:57.103Z,9.78
2023-01-13T16:20:23.712Z,9.78
2023-01-13T16:22:50.568Z,9.72
2023-01-13T16:25:25.026Z,9.68
2023-01-13T16:27:52.720Z,9.64
2023-01-13T16:30:28.422Z,9.70
2023-01-13T16:32:55.250Z,9.69
2023-01-13T16:35:22.470Z,9.67
2023-01-13T16:37:49.332Z,9.68
2023-01-13T16:40:34.051Z,9.63
2023-01-13T16:43:03.201Z,9.73
2023-01-13T16:45:33.577Z,9.64
2023-01-13T16:48:00.337Z,9.68
2023-01-13T16:50:45.151Z,9.66
2023-01-13T16:53:11.985Z,9.56
2023-01-13T16:55:40.060Z,9.56
2023-01-13T16:58:07.292Z,9.55
2023-01-13T17:00:34.121Z,9.56
2023-01-13T17:03:02.949Z,9.53
2023-01-13T17:05:29.615Z,9.48
2023-01-13T17:07:57.359Z,9.55
2023-01-13T17:10:25.094Z,9.53
2023-01-13T17:12:51.775Z,9.49
2023-01-13T17:15:19.593Z,9.42
2023-01-13T17:17:52.072Z,9.31
2023-01-13T17:20:19.204Z,9.27
2023-01-13T17:22:49.754Z,9.26
2023-01-13T17:25:21.592Z,9.24
2023-01-13T17:27:48.216Z,9.15
2023-01-13T17:30:15.159Z,9.18
2023-01-13T17:32:41.760Z,9.19
2023-01-13T17:35:08.921Z,9.13
2023-01-13T17:37:35.673Z,9.17
2023-01-13T17:40:02.271Z,9.10
2023-01-13T17:42:29.651Z,9.08
2023-01-13T17:44:56.400Z,9.07
2023-01-13T17:47:23.119Z,9.04
2023-01-13T17:49:49.681Z,9.10
2023-01-13T17:52:16.306Z,9.03
2023-01-13T17:54:43.830Z,8.94
2023-01-13T17:57:10.741Z,8.91
2023-01-13T17:59:37.305Z,8.82
2023-01-13T18:02:04.891Z,8.82
2023-01-13T18:04:31.701Z,8.95
2023-01-13T18:06:58.385Z,8.95
2023-01-13T18:09:25.956Z,8.99
2023-01-13T18:11:52.525Z,8.99
2023-01-13T18:14:22.373Z,8.96
2023-01-13T18:16:49.032Z,9.05
2023-01-13T18:19:34.194Z,8.99
2023-01-13T18:22:19.513Z,9.05
2023-01-13T18:25:04.703Z,9.09
2023-01-13T18:27:33.477Z,9.16
2023-01-13T18:30:01.102Z,9.16
2023-01-13T18:32:32.871Z,9.26
2023-01-13T18:35:06.489Z,9.22
2023-01-13T18:37:35.980Z,9.30
2023-01-13T18:40:03.493Z,9.29
2023-01-13T18:42:48.871Z,9.33
2023-01-13T18:45:15.465Z,9.26
2023-01-13T18:47:42.362Z,9.29
2023-01-13T18:50:09.871Z,9.34
2023-01-13T18:52:36.626Z,9.37
2023-01-13T18:55:03.706Z,9.37
2023-01-13T18:57:30.311Z,9.30
2023-01-13T18:59:57.650Z,9.35
2023-01-13T19:02:26.372Z,9.37
2023-01-13T19:04:53.853Z,9.33
2023-01-13T19:07:26.787Z,9.38
2023-01-13T19:09:55.545Z,9.36
2023-01-13T19:12:26.455Z,9.40
2023-01-13T19:14:59.257Z,9.35
2023-01-13T19:17:36.265Z,9.37
2023-01-13T19:20:05.072Z,9.29
2023-01-13T19:22:33.678Z,9.28
2023-01-13T19:25:01.568Z,9.36
2023-01-13T19:27:29.203Z,9.29
2023-01-13T19:30:02.361Z,9.27
2023-01-13T19:32:35.506Z,9.30
2023-01-13T19:35:02.107Z,9.19
2023-01-13T19:37:30.433Z,9.24
2023-01-13T19:39:58.624Z,9.27
2023-01-13T19:42:43.964Z,9.28
2023-01-13T19:45:27.346Z,9.23
2023-01-13T19:47:55.348Z,9.24
2023-01-13T19:50:21.907Z,9.21
2023-01-13T19:52:49.432Z,9.26
2023-01-13T19:55:16.498Z,9.27
2023-01-13T19:57:43.471Z,9.12
2023-01-13T20:00:11.264Z,9.26
2023-01-13T20:02:47.586Z,9.26
2023-01-13T20:05:18.124Z,9.15
2023-01-13T20:07:44.817Z,9.01
2023-01-13T20:10:13.175Z,9.10
2023-01-13T20:12:39.902Z,9.00
2023-01-13T20:15:07.057Z,9.10
2023-01-13T20:17:33.642Z,8.97
2023-01-13T20:20:00.358Z,9.14
2023-01-13T20:22:26.921Z,9.09
2023-01-13T20:24:55.270Z,9.04
2023-01-13T20:27:23.736Z,9.09
2023-01-13T20:29:50.628Z,9.06
2023-01-13T20:32:17.169Z,9.12
2023-01-13T20:34:43.820Z,9.06
2023-01-13T20:37:10.439Z,9.06
2023-01-13T20:39:36.996Z,9.05
2023-01-13T20:42:22.659Z,8.99
2023-01-13T20:44:49.642Z,8.97
2023-01-13T20:47:16.160Z,8.99
2023-01-13T20:49:42.700Z,9.01
2023-01-13T20:52:09.709Z,8.97
2023-01-13T20:54:37.099Z,8.92
2023-01-13T20:57:05.075Z,8.99
2023-01-13T20:59:31.755Z,8.93
2023-01-13T21:01:58.391Z,8.94
2023-01-13T21:04:25.078Z,8.83
2023-01-13T21:06:52.260Z,8.89
2023-01-13T21:09:18.875Z,8.91
2023-01-13T21:12:04.065Z,8.88
2023-01-13T21:14:49.227Z,8.94
2023-01-13T21:17:34.331Z,8.86
2023-01-13T21:20:02.298Z,8.78
2023-01-13T21:22:30.250Z,8.83
2023-01-13T21:24:58.476Z,8.75
2023-01-13T21:27:25.824Z,8.71
2023-01-13T21:29:52.419Z,8.65
2023-01-13T21:32:19.074Z,8.57
2023-01-13T21:34:46.429Z,8.60
2023-01-13T21:37:14.788Z,8.64
2023-01-13T21:39:42.507Z,8.69
2023-01-13T21:42:34.651Z,8.75
2023-01-13T21:45:20.490Z,8.70
2023-01-13T21:47:49.656Z,8.72
2023-01-13T21:50:22.533Z,8.78
2023-01-13T21:52:50.285Z,8.75
2023-01-13T21:55:17.176Z,8.79
2023-01-13T21:57:47.815Z,8.85
2023-01-13T22:00:15.782Z,8.74
2023-01-13T22:02:42.948Z,8.73
2023-01-13T22:05:11.304Z,8.70
2023-01-13T22:07:38.939Z,8.71
2023-01-13T22:10:08.135Z,8.70
2023-01-13T22:12:34.680Z,8.72
2023-01-13T22:15:01.855Z,8.63
2023-01-13T22:17:28.694Z,8.70
2023-01-13T22:19:57.343Z,8.73
2023-01-13T22:22:25.096Z,8.69
2023-01-13T22:24:53.107Z,8.67
2023-01-13T22:27:21.966Z,8.66
2023-01-13T22:29:49.565Z,8.67
2023-01-13T22:32:16.723Z,8.63
2023-01-13T22:34:43.605Z,8.65
2023-01-13T22:37:10.254Z,8.69
2023-01-13T22:39:36.861Z,8.55
2023-01-13T22:42:04.095Z,8.56
2023-01-13T22:44:30.745Z,8.52
2023-01-13T22:46:57.283Z,8.44
2023-01-13T22:49:23.838Z,8.41
2023-01-13T22:51:50.404Z,8.47
2023-01-13T22:54:18.233Z,8.47
2023-01-13T22:56:44.871Z,8.44
2023-01-13T22:59:13.208Z,8.41
2023-01-13T23:01:40.287Z,8.40
2023-01-13T23:04:07.140Z,8.35
2023-01-13T23:06:35.323Z,8.38
2023-01-13T23:09:01.894Z,8.41
2023-01-13T23:11:29.461Z,8.39
2023-01-13T23:14:07.031Z,8.33
2023-01-13T23:16:36.808Z,8.35
2023-01-13T23:19:04.657Z,8.34
2023-01-13T23:21:33.325Z,8.36
2023-01-13T23:24:00.328Z,8.28
2023-01-13T23:26:27.628Z,8.20
2023-01-13T23:28:58.869Z,8.09
2023-01-13T23:31:25.815Z,8.14
2023-01-13T23:33:52.477Z,8.03
2023-01-13T23:36:21.326Z,8.11
2023-01-13T23:38:48.180Z,8.12
2023-01-13T23:41:16.711Z,8.08
2023-01-13T23:43:43.350Z,8.15
2023-01-13T23:46:12.447Z,8.09
2023-01-13T23:48:39.138Z,8.09
2023-01-13T23:51:08.678Z,8.13
2023-01-13T23:53:39.952Z,8.14
2023-01-13T23:56:10.507Z,8.14
2023-01-13T23:58:37.055Z,8.14
